Time;durP1;ratioP1;P1;durP2;ratioP2;P2;SDS_P1;SDS_P2;PMS_P1;PMS_P2;Temp;Humidity;BMP_temperature;BMP_pressure;BME280_temperature;BME280_humidity;BME280_pressure;Samples;Min_cycle;Max_cycle;Signal;HPM_P1;HPM_P2
2022/04/23 00:01:35;;;;;;;10.43;6.65;;;;;;;;;;6184605;23;20414;-85
2022/04/23 00:04:01;;;;;;;12.63;7.03;;;;;;;;;;6185072;23;20083;-86
2022/04/23 00:06:27;;;;;;;13.93;7.00;;;;;;;;;;6160521;23;20474;-86
2022/04/23 00:08:53;;;;;;;10.40;7.20;;;;;;;;;;6184981;23;20041;-86
2022/04/23 00:11:19;;;;;;;11.18;7.03;;;;;;;;;;6185059;23;20020;-86
2022/04/23 00:13:45;;;;;;;12.15;7.00;;;;;;;;;;6160072;23;20020;-86
2022/04/23 00:16:14;;;;;;;12.68;7.90;;;;;;;;;;6185412;23;20070;-87
2022/04/23 00:18:40;;;;;;;12.90;7.47;;;;;;;;;;6160018;23;20083;-87
2022/04/23 00:21:06;;;;;;;11.93;7.15;;;;;;;;;;6184911;23;20386;-85
2022/04/23 00:23:33;;;;;;;11.60;7.47;;;;;;;;;;6159980;23;20013;-87
2022/04/23 00:26:00;;;;;;;15.45;8.35;;;;;;;;;;6185010;23;20013;-85
2022/04/23 00:28:26;;;;;;;12.80;7.90;;;;;;;;;;6160062;23;20009;-86
2022/04/23 00:30:52;;;;;;;11.80;7.82;;;;;;;;;;6160120;23;20096;-86
2022/04/23 00:33:19;;;;;;;12.80;7.65;;;;;;;;;;6184635;23;20025;-86
2022/04/23 00:35:45;;;;;;;15.57;7.90;;;;;;;;;;6184962;23;20386;-86
2022/04/23 00:38:11;;;;;;;11.90;6.97;;;;;;;;;;6184591;23;20502;-87
2022/04/23 00:40:39;;;;;;;12.65;8.00;;;;;;;;;;6184786;23;20017;-86
2022/04/23 00:43:10;;;;;;;14.50;8.55;;;;;;;;;;6159785;23;20449;-85
2022/04/23 00:45:36;;;;;;;12.00;7.85;;;;;;;;;;6184914;23;20080;-86
2022/04/23 00:48:03;;;;;;;14.63;8.32;;;;;;;;;;6159806;23;20016;-86
2022/04/23 00:50:29;;;;;;;14.45;8.35;;;;;;;;;;6184567;23;20065;-86
2022/04/23 00:53:00;;;;;;;15.32;8.30;;;;;;;;;;6184749;23;20067;-86
2022/04/23 00:55:26;;;;;;;11.52;8.25;;;;;;;;;;6184529;23;20021;-85
2022/04/23 00:57:52;;;;;;;17.13;8.68;;;;;;;;;;6159971;23;20013;-86
2022/04/23 01:00:18;;;;;;;13.55;8.35;;;;;;;;;;6184360;23;20048;-85
2022/04/23 01:02:44;;;;;;;12.93;8.75;;;;;;;;;;6184673;23;20067;-87
2022/04/23 01:05:12;;;;;;;13.68;8.75;;;;;;;;;;6184516;23;20060;-86
2022/04/23 01:07:41;;;;;;;14.05;8.43;;;;;;;;;;6159778;23;20515;-86
2022/04/23 01:10:07;;;;;;;13.82;8.18;;;;;;;;;;6184256;23;20020;-86
2022/04/23 01:12:35;;;;;;;14.25;8.63;;;;;;;;;;6184395;23;20048;-85
2022/04/23 01:15:02;;;;;;;14.05;8.55;;;;;;;;;;6159469;23;20017;-85
2022/04/23 01:17:28;;;;;;;12.45;9.05;;;;;;;;;;6184717;23;20021;-86
2022/04/23 01:19:54;;;;;;;17.30;9.50;;;;;;;;;;6159410;23;20386;-86
2022/04/23 01:22:23;;;;;;;15.55;8.90;;;;;;;;;;6184437;23;20008;-85
2022/04/23 01:24:50;;;;;;;18.98;10.07;;;;;;;;;;6159370;23;20024;-86
2022/04/23 01:27:16;;;;;;;13.30;8.98;;;;;;;;;;6159734;23;20009;-87
2022/04/23 01:29:42;;;;;;;12.70;9.00;;;;;;;;;;6184145;23;20012;-87
2022/04/23 01:32:08;;;;;;;14.80;9.05;;;;;;;;;;6184066;23;20021;-86
2022/04/23 01:34:34;;;;;;;15.48;9.57;;;;;;;;;;6184117;23;20021;-87
2022/04/23 01:37:00;;;;;;;14.50;8.23;;;;;;;;;;6184445;23;20442;-86
2022/04/23 01:39:26;;;;;;;17.77;9.60;;;;;;;;;;6184249;23;20024;-87
2022/04/23 01:41:52;;;;;;;13.68;9.77;;;;;;;;;;6184246;23;20024;-86
2022/04/23 01:44:18;;;;;;;15.35;9.57;;;;;;;;;;6184098;23;20024;-86
2022/04/23 01:46:44;;;;;;;15.32;9.85;;;;;;;;;;6184273;23;20009;-86
2022/04/23 01:49:10;;;;;;;14.68;10.23;;;;;;;;;;6183920;23;20015;-86
2022/04/23 01:51:36;;;;;;;14.45;9.60;;;;;;;;;;6184170;23;20020;-85
2022/04/23 01:54:01;;;;;;;12.80;9.88;;;;;;;;;;6184025;23;20052;-87
2022/04/23 01:56:27;;;;;;;15.95;10.73;;;;;;;;;;6184151;23;20349;-86
2022/04/23 01:58:53;;;;;;;17.45;10.48;;;;;;;;;;6184008;23;20017;-86
2022/04/23 02:01:19;;;;;;;13.30;9.77;;;;;;;;;;6184174;23;20112;-86
2022/04/23 02:03:46;;;;;;;14.80;10.57;;;;;;;;;;6184015;23;20351;-86
2022/04/23 02:06:13;;;;;;;16.60;10.90;;;;;;;;;;6184295;23;20079;-88
2022/04/23 02:08:39;;;;;;;16.08;10.65;;;;;;;;;;6184156;23;20013;-87
2022/04/23 02:11:06;;;;;;;16.45;10.20;;;;;;;;;;6183692;23;20435;-86
2022/04/23 02:13:34;;;;;;;15.23;9.95;;;;;;;;;;6159275;23;20424;-87
2022/04/23 02:16:03;;;;;;;13.50;10.05;;;;;;;;;;6159061;23;20477;-88
2022/04/23 02:18:29;;;;;;;16.20;11.18;;;;;;;;;;6159226;23;20017;-87
2022/04/23 02:20:55;;;;;;;15.70;9.73;;;;;;;;;;6183557;23;20023;-87
2022/04/23 02:23:21;;;;;;;16.45;10.40;;;;;;;;;;6183987;23;20017;-86
2022/04/23 02:25:47;;;;;;;17.10;11.05;;;;;;;;;;6183777;23;20060;-86
2022/04/23 02:28:13;;;;;;;15.50;10.57;;;;;;;;;;6183926;23;20008;-86
2022/04/23 02:30:39;;;;;;;18.17;10.70;;;;;;;;;;6158812;23;20013;-87
2022/04/23 02:33:05;;;;;;;18.00;10.57;;;;;;;;;;6183872;23;20013;-86
2022/04/23 02:35:34;;;;;;;19.25;10.68;;;;;;;;;;6183755;23;20447;-87
2022/04/23 02:38:02;;;;;;;15.90;10.70;;;;;;;;;;6159026;23;20442;-86
2022/04/23 02:40:31;;;;;;;18.38;10.82;;;;;;;;;;6158945;23;20091;-87
2022/04/23 02:42:57;;;;;;;17.70;10.68;;;;;;;;;;6183881;23;20345;-86
2022/04/23 02:45:25;;;;;;;14.55;10.48;;;;;;;;;;6185142;23;20443;-87
2022/04/23 02:47:57;;;;;;;16.88;10.85;;;;;;;;;;6183884;23;20013;-87
2022/04/23 02:50:34;;;;;;;15.73;10.70;;;;;;;;;;6158716;23;20031;-86
2022/04/23 02:53:00;;;;;;;17.35;10.35;;;;;;;;;;6183803;23;20084;-86
2022/04/23 02:55:28;;;;;;;15.63;10.70;;;;;;;;;;6183487;23;20013;-87
2022/04/23 02:57:56;;;;;;;19.92;10.88;;;;;;;;;;6183680;23;20037;-86
2022/04/23 03:00:23;;;;;;;17.88;10.77;;;;;;;;;;6158466;23;20451;-88
2022/04/23 03:02:49;;;;;;;16.80;10.25;;;;;;;;;;6183685;23;20039;-86
2022/04/23 03:05:15;;;;;;;17.10;11.13;;;;;;;;;;6183423;23;20040;-86
2022/04/23 03:07:41;;;;;;;15.20;10.30;;;;;;;;;;6183638;23;20013;-85
2022/04/23 03:10:08;;;;;;;16.05;10.90;;;;;;;;;;6183315;23;20026;-87
2022/04/23 03:12:38;;;;;;;15.90;10.70;;;;;;;;;;6183535;23;20075;-88
2022/04/23 03:15:08;;;;;;;18.52;10.82;;;;;;;;;;6158910;23;20383;-88
2022/04/23 03:17:34;;;;;;;15.85;10.35;;;;;;;;;;6158848;23;20016;-87
2022/04/23 03:20:01;;;;;;;16.05;10.07;;;;;;;;;;6184098;23;20509;-87
2022/04/23 03:22:27;;;;;;;18.08;11.45;;;;;;;;;;6183523;23;20017;-86
2022/04/23 03:24:53;;;;;;;17.63;11.75;;;;;;;;;;6183397;23;20063;-88
2022/04/23 03:27:19;;;;;;;15.07;10.10;;;;;;;;;;6158837;23;20009;-87
2022/04/23 03:29:45;;;;;;;14.70;10.65;;;;;;;;;;6158347;23;20017;-87
2022/04/23 03:32:11;;;;;;;16.08;11.15;;;;;;;;;;6183337;23;20087;-87
2022/04/23 03:34:37;;;;;;;13.90;10.70;;;;;;;;;;6183460;23;20096;-86
2022/04/23 03:37:05;;;;;;;14.93;10.05;;;;;;;;;;6158739;23;20446;-86
2022/04/23 03:39:30;;;;;;;17.20;10.55;;;;;;;;;;6158566;23;20024;-87
2022/04/23 03:41:56;;;;;;;14.23;10.43;;;;;;;;;;6183185;23;20343;-89
2022/04/23 03:44:22;;;;;;;15.35;10.80;;;;;;;;;;6183408;23;20091;-86
2022/04/23 03:46:48;;;;;;;15.27;10.43;;;;;;;;;;6183210;23;20017;-87
2022/04/23 03:49:14;;;;;;;17.25;10.95;;;;;;;;;;6183418;23;20080;-86
2022/04/23 03:51:41;;;;;;;14.77;10.63;;;;;;;;;;6183194;23;20016;-88
2022/04/23 03:54:07;;;;;;;19.02;11.10;;;;;;;;;;6158534;23;20048;-88
2022/04/23 03:56:33;;;;;;;13.93;9.80;;;;;;;;;;6183164;23;20048;-87
2022/04/23 03:59:00;;;;;;;15.30;11.05;;;;;;;;;;6158553;23;20016;-88
2022/04/23 04:01:27;;;;;;;15.25;10.00;;;;;;;;;;6182980;23;20063;-87
2022/04/23 04:03:53;;;;;;;16.35;11.20;;;;;;;;;;6158665;23;20018;-87
2022/04/23 04:06:19;;;;;;;14.02;10.88;;;;;;;;;;6158373;23;20092;-87
2022/04/23 04:08:50;;;;;;;13.82;10.40;;;;;;;;;;6183308;23;20041;-87
2022/04/23 04:11:16;;;;;;;15.63;11.00;;;;;;;;;;6183225;23;20013;-87
2022/04/23 04:13:42;;;;;;;14.95;10.75;;;;;;;;;;6183290;23;20024;-87
2022/04/23 04:16:08;;;;;;;15.75;11.70;;;;;;;;;;6183143;23;20017;-87
2022/04/23 04:18:34;;;;;;;13.70;10.77;;;;;;;;;;6183381;23;20347;-87
2022/04/23 04:21:00;;;;;;;15.63;10.98;;;;;;;;;;6182750;23;20015;-86
2022/04/23 04:23:27;;;;;;;14.40;10.80;;;;;;;;;;6183335;23;20014;-87
2022/04/23 04:25:53;;;;;;;14.77;10.93;;;;;;;;;;6158264;23;20020;-87
2022/04/23 04:28:19;;;;;;;14.05;11.23;;;;;;;;;;6158467;23;20009;-87
2022/04/23 04:33:29;;;;;;;15.48;11.38;;;;;;;;;;6128882;23;20025;-88
2022/04/23 04:35:55;;;;;;;15.40;10.52;;;;;;;;;;6128643;23;20149;-87
2022/04/23 04:38:21;;;;;;;18.73;11.45;;;;;;;;;;6128938;23;20024;-90
2022/04/23 04:40:47;;;;;;;15.55;10.77;;;;;;;;;;6128570;23;20013;-86
2022/04/23 04:43:13;;;;;;;15.93;11.63;;;;;;;;;;6128821;23;20440;-88
2022/04/23 04:45:39;;;;;;;13.95;11.13;;;;;;;;;;6128634;23;20400;-86
2022/04/23 04:48:05;;;;;;;14.75;10.40;;;;;;;;;;6129827;23;20016;-86
2022/04/23 04:50:32;;;;;;;14.82;11.10;;;;;;;;;;6130209;23;20014;-88
2022/04/23 04:52:58;;;;;;;14.52;10.88;;;;;;;;;;6130612;23;20021;-88
2022/04/23 04:55:24;;;;;;;15.77;10.88;;;;;;;;;;6130608;23;20088;-88
2022/04/23 04:57:50;;;;;;;13.73;10.77;;;;;;;;;;6130454;23;20013;-86
2022/04/23 05:00:18;;;;;;;13.60;11.05;;;;;;;;;;6130360;23;20510;-90
2022/04/23 05:02:44;;;;;;;13.60;10.65;;;;;;;;;;6105906;23;20065;-90
2022/04/23 05:05:10;;;;;;;14.27;11.07;;;;;;;;;;6130521;23;20009;-88
2022/04/23 05:07:36;;;;;;;13.43;10.77;;;;;;;;;;6130192;23;20387;-87
2022/04/23 05:10:03;;;;;;;15.90;10.60;;;;;;;;;;6130333;23;20088;-86
2022/04/23 05:12:29;;;;;;;16.23;10.68;;;;;;;;;;6130283;23;20021;-86
2022/04/23 05:14:55;;;;;;;14.65;10.95;;;;;;;;;;6130426;23;20452;-87
2022/04/23 05:17:21;;;;;;;15.82;11.00;;;;;;;;;;6156645;23;20048;-88
2022/04/23 05:19:47;;;;;;;13.45;10.35;;;;;;;;;;6130329;23;20112;-87
2022/04/23 05:22:12;;;;;;;13.52;10.50;;;;;;;;;;6105701;23;20014;-87
2022/04/23 05:24:38;;;;;;;14.35;11.05;;;;;;;;;;6130287;23;20359;-86
2022/04/23 05:27:04;;;;;;;15.20;10.60;;;;;;;;;;6129889;23;20079;-87
2022/04/23 05:29:30;;;;;;;14.48;10.30;;;;;;;;;;6130174;23;20013;-87
2022/04/23 05:31:56;;;;;;;15.50;10.50;;;;;;;;;;6146545;23;20367;-86
2022/04/23 05:34:25;;;;;;;13.77;11.00;;;;;;;;;;6186496;23;20021;-87
2022/04/23 05:36:51;;;;;;;14.30;10.98;;;;;;;;;;6159426;23;20017;-88
2022/04/23 05:39:17;;;;;;;14.57;10.52;;;;;;;;;;6159849;23;20072;-86
2022/04/23 05:41:43;;;;;;;15.35;11.02;;;;;;;;;;6184178;23;20049;-88
2022/04/23 05:44:09;;;;;;;16.40;10.70;;;;;;;;;;6159689;23;20429;-86
2022/04/23 05:46:35;;;;;;;13.18;9.95;;;;;;;;;;6184045;23;20009;-87
2022/04/23 05:49:00;;;;;;;13.43;9.70;;;;;;;;;;6184309;23;20087;-85
2022/04/23 05:51:27;;;;;;;13.10;9.70;;;;;;;;;;6184029;23;20020;-87
2022/04/23 05:53:52;;;;;;;14.73;10.80;;;;;;;;;;6159554;23;20092;-85
2022/04/23 05:56:18;;;;;;;14.63;10.32;;;;;;;;;;6184064;23;20059;-87
2022/04/23 05:58:44;;;;;;;13.55;10.02;;;;;;;;;;6159255;23;20016;-86
2022/04/23 06:01:10;;;;;;;15.38;10.27;;;;;;;;;;6183742;23;20012;-86
2022/04/23 06:03:36;;;;;;;17.63;10.18;;;;;;;;;;6184304;23;20024;-86
2022/04/23 06:06:02;;;;;;;13.00;9.60;;;;;;;;;;6159430;23;20088;-86
2022/04/23 06:08:28;;;;;;;12.77;10.55;;;;;;;;;;6159119;23;20013;-87
2022/04/23 06:10:54;;;;;;;12.63;9.93;;;;;;;;;;6184144;23;20372;-87
2022/04/23 06:13:20;;;;;;;14.38;10.30;;;;;;;;;;6183914;23;20062;-87
2022/04/23 06:15:46;;;;;;;14.05;10.77;;;;;;;;;;6184128;23;20024;-86
2022/04/23 06:18:12;;;;;;;13.25;10.07;;;;;;;;;;6184714;23;20009;-85
2022/04/23 06:20:38;;;;;;;13.02;10.32;;;;;;;;;;6162413;23;20331;-86
2022/04/23 06:23:05;;;;;;;15.25;11.07;;;;;;;;;;6185341;23;20084;-86
2022/04/23 06:25:31;;;;;;;14.38;10.15;;;;;;;;;;6184058;23;20059;-86
2022/04/23 06:27:57;;;;;;;13.73;10.63;;;;;;;;;;6183779;23;20013;-88
2022/04/23 06:30:23;;;;;;;13.90;9.80;;;;;;;;;;6183869;23;20032;-86
2022/04/23 06:32:49;;;;;;;14.30;10.52;;;;;;;;;;6183541;23;20439;-87
2022/04/23 06:35:15;;;;;;;13.63;10.38;;;;;;;;;;6184007;23;20084;-86
2022/04/23 06:37:41;;;;;;;14.65;10.15;;;;;;;;;;6183668;23;20015;-89
2022/04/23 06:40:11;;;;;;;14.68;10.55;;;;;;;;;;6158832;23;20067;-86
2022/04/23 06:42:41;;;;;;;14.40;10.90;;;;;;;;;;6183513;23;20013;-86
2022/04/23 06:45:07;;;;;;;21.55;10.85;;;;;;;;;;6183671;23;20066;-87
2022/04/23 06:47:33;;;;;;;16.42;10.30;;;;;;;;;;6183291;23;20342;-86
2022/04/23 06:50:00;;;;;;;13.73;11.23;;;;;;;;;;6183438;23;20009;-87
2022/04/23 06:52:26;;;;;;;14.57;10.77;;;;;;;;;;6183358;23;20058;-87
2022/04/23 06:54:54;;;;;;;13.23;10.40;;;;;;;;;;6158931;23;20403;-87
2022/04/23 06:57:21;;;;;;;13.52;9.82;;;;;;;;;;6158814;23;20066;-87
2022/04/23 06:59:47;;;;;;;14.73;10.48;;;;;;;;;;6183528;23;20446;-86
2022/04/23 07:02:13;;;;;;;15.38;10.38;;;;;;;;;;6158169;23;20009;-88
2022/04/23 07:04:40;;;;;;;12.48;10.75;;;;;;;;;;6183481;23;20386;-87
2022/04/23 07:07:06;;;;;;;16.27;11.05;;;;;;;;;;6158371;23;20013;-87
2022/04/23 07:09:32;;;;;;;14.93;10.70;;;;;;;;;;6183256;23;20016;-86
2022/04/23 07:11:58;;;;;;;12.80;9.70;;;;;;;;;;6182768;23;20036;-86
2022/04/23 07:14:25;;;;;;;13.38;9.63;;;;;;;;;;6183305;23;20017;-88
2022/04/23 07:16:51;;;;;;;14.18;10.23;;;;;;;;;;6158585;23;20017;-86
2022/04/23 07:19:18;;;;;;;16.90;10.50;;;;;;;;;;6183006;23;20024;-85
2022/04/23 07:21:44;;;;;;;15.93;11.50;;;;;;;;;;6183129;23;20017;-86
2022/04/23 07:24:11;;;;;;;12.88;10.18;;;;;;;;;;6158272;23;20017;-87
2022/04/23 07:26:38;;;;;;;13.27;11.20;;;;;;;;;;6158155;23;20009;-85
2022/04/23 07:29:08;;;;;;;14.88;11.23;;;;;;;;;;6158212;23;20009;-87
2022/04/23 07:31:35;;;;;;;12.63;10.35;;;;;;;;;;6183053;23;20163;-88
2022/04/23 07:39:30;;;;;;;15.65;10.57;;;;;;;;;;6183311;23;20017;-86
2022/04/23 07:41:56;;;;;;;14.77;10.20;;;;;;;;;;6181456;23;20009;-87
2022/04/23 07:44:25;;;;;;;14.02;9.93;;;;;;;;;;6183493;23;20032;-90
2022/04/23 07:46:51;;;;;;;12.48;10.25;;;;;;;;;;6158929;23;20012;-88
2022/04/23 07:49:18;;;;;;;12.35;9.65;;;;;;;;;;6158712;23;20013;-89
2022/04/23 07:51:47;;;;;;;13.57;10.25;;;;;;;;;;6183530;23;20403;-87
2022/04/23 07:54:14;;;;;;;15.55;10.32;;;;;;;;;;6183252;23;20024;-86
2022/04/23 07:56:41;;;;;;;14.13;10.10;;;;;;;;;;6182127;23;20016;-88
2022/04/23 07:59:07;;;;;;;13.15;10.68;;;;;;;;;;6183232;23;20013;-87
2022/04/23 08:01:33;;;;;;;13.77;10.75;;;;;;;;;;6183332;23;20338;-89
2022/04/23 08:04:02;;;;;;;11.70;9.18;;;;;;;;;;6183142;23;20017;-87
2022/04/23 08:06:28;;;;;;;14.75;10.75;;;;;;;;;;6158619;23;20072;-84
2022/04/23 08:08:54;;;;;;;19.48;11.07;;;;;;;;;;6184889;23;20009;-90
2022/04/23 08:11:22;;;;;;;16.40;9.93;;;;;;;;;;6183561;23;20323;-86
2022/04/23 08:13:50;;;;;;;12.30;10.10;;;;;;;;;;6159344;23;20068;-87
2022/04/23 08:16:16;;;;;;;14.75;9.95;;;;;;;;;;6159795;23;20019;-86
2022/04/23 08:18:42;;;;;;;14.82;9.52;;;;;;;;;;6183676;23;20091;-87
2022/04/23 08:21:08;;;;;;;15.02;10.18;;;;;;;;;;6158578;23;20044;-86
2022/04/23 08:23:34;;;;;;;14.30;10.38;;;;;;;;;;6160131;23;20460;-88
2022/04/23 08:26:05;;;;;;;15.32;9.70;;;;;;;;;;6185128;23;20173;-90
2022/04/23 08:31:15;;;;;;;15.55;10.38;;;;;;;;;;6184796;23;20052;-88
2022/04/23 08:33:57;;;;;;;16.00;9.98;;;;;;;;;;6184978;23;20025;-87
2022/04/23 08:36:23;;;;;;;13.48;10.20;;;;;;;;;;6160370;23;20084;-86
2022/04/23 08:38:49;;;;;;;13.85;9.20;;;;;;;;;;6184934;23;20036;-85
2022/04/23 08:41:16;;;;;;;15.77;9.57;;;;;;;;;;6184920;23;20009;-86
2022/04/23 08:43:42;;;;;;;14.65;10.23;;;;;;;;;;6184892;23;20091;-90
2022/04/23 08:46:09;;;;;;;15.68;10.15;;;;;;;;;;6185367;23;20347;-85
2022/04/23 08:48:37;;;;;;;11.48;9.05;;;;;;;;;;6159799;23;20044;-85
2022/04/23 08:51:05;;;;;;;15.52;9.23;;;;;;;;;;6184942;23;20048;-87
2022/04/23 08:53:32;;;;;;;11.57;9.65;;;;;;;;;;6186604;23;20017;-86
2022/04/23 08:55:59;;;;;;;13.73;10.18;;;;;;;;;;6159999;23;20059;-84
2022/04/23 08:58:25;;;;;;;11.55;9.63;;;;;;;;;;6159690;23;20032;-85
2022/04/23 09:00:51;;;;;;;14.07;9.77;;;;;;;;;;6184638;23;20096;-85
2022/04/23 09:03:17;;;;;;;11.68;9.63;;;;;;;;;;6184595;23;20071;-86
2022/04/23 09:05:43;;;;;;;10.80;9.20;;;;;;;;;;6184807;23;20056;-84
2022/04/23 09:08:10;;;;;;;12.27;8.90;;;;;;;;;;6184507;23;20100;-86
2022/04/23 09:11:05;;;;;;;14.07;9.45;;;;;;;;;;6159853;23;20399;-87
2022/04/23 09:13:31;;;;;;;12.90;8.55;;;;;;;;;;6160247;23;20493;-86
2022/04/23 09:24:45;;;;;;;14.90;9.82;;;;;;;;;;6184483;23;20039;-86
2022/04/23 09:27:11;;;;;;;14.65;9.93;;;;;;;;;;6159792;23;20013;-85
2022/04/23 09:29:37;;;;;;;11.13;9.80;;;;;;;;;;6184066;23;20048;-88
2022/04/23 09:32:19;;;;;;;12.00;9.65;;;;;;;;;;6184348;23;20017;-87
2022/04/23 09:34:45;;;;;;;13.63;11.48;;;;;;;;;;6159092;23;20021;-85
2022/04/23 09:37:11;;;;;;;14.25;10.88;;;;;;;;;;6184155;23;20019;-87
2022/04/23 09:39:40;;;;;;;11.38;9.82;;;;;;;;;;6184090;23;20045;-86
2022/04/23 09:42:13;;;;;;;16.48;11.23;;;;;;;;;;6184279;23;20040;-85
2022/04/23 09:44:40;;;;;;;13.25;9.98;;;;;;;;;;6184022;23;20017;-85
2022/04/23 09:47:06;;;;;;;12.85;10.75;;;;;;;;;;6184369;23;20020;-86
2022/04/23 09:49:32;;;;;;;12.35;9.50;;;;;;;;;;6183962;23;20173;-84
2022/04/23 09:52:04;;;;;;;13.48;10.07;;;;;;;;;;6184407;23;20017;-85
2022/04/23 09:54:34;;;;;;;12.85;10.20;;;;;;;;;;6183981;23;20020;-85
2022/04/23 09:57:00;;;;;;;10.52;9.27;;;;;;;;;;6184332;23;20013;-86
2022/04/23 09:59:29;;;;;;;11.52;9.90;;;;;;;;;;6184179;23;20017;-85
2022/04/23 10:01:56;;;;;;;11.82;10.23;;;;;;;;;;6159387;23;20072;-85
2022/04/23 10:04:23;;;;;;;12.48;10.38;;;;;;;;;;6184060;23;20013;-85
2022/04/23 10:06:51;;;;;;;12.52;9.50;;;;;;;;;;6184160;23;20060;-88
2022/04/23 10:09:19;;;;;;;13.20;10.35;;;;;;;;;;6183953;23;20039;-85
2022/04/23 10:11:48;;;;;;;12.35;10.10;;;;;;;;;;6184234;23;20039;-86
2022/04/23 10:14:19;;;;;;;12.27;9.38;;;;;;;;;;6183990;23;20185;-85
2022/04/23 10:16:47;;;;;;;13.70;10.30;;;;;;;;;;6184210;23;20017;-86
2022/04/23 10:19:13;;;;;;;11.02;8.98;;;;;;;;;;6158996;23;20013;-88
2022/04/23 10:21:48;;;;;;;13.70;9.63;;;;;;;;;;6158949;23;20039;-85
2022/04/23 10:24:18;;;;;;;13.85;9.82;;;;;;;;;;6183854;23;20049;-84
2022/04/23 10:27:06;;;;;;;12.27;9.38;;;;;;;;;;6184298;23;20088;-84
2022/04/23 10:29:32;;;;;;;15.48;10.43;;;;;;;;;;6158917;23;20063;-85
2022/04/23 10:32:13;;;;;;;13.73;10.18;;;;;;;;;;6158872;23;20343;-87
2022/04/23 10:34:40;;;;;;;14.05;10.20;;;;;;;;;;6183719;23;20029;-87
2022/04/23 10:37:27;;;;;;;13.93;10.75;;;;;;;;;;6183922;23;20017;-87
2022/04/23 10:39:53;;;;;;;15.23;9.70;;;;;;;;;;6158877;23;20017;-87
2022/04/23 10:42:31;;;;;;;12.07;9.30;;;;;;;;;;6183691;23;20016;-87
2022/04/23 10:44:57;;;;;;;12.05;10.52;;;;;;;;;;6178157;23;20025;-85
2022/04/23 10:47:32;;;;;;;12.65;10.60;;;;;;;;;;6158971;23;20017;-85
2022/04/23 10:50:13;;;;;;;12.10;9.93;;;;;;;;;;6158626;23;20033;-85
2022/04/23 10:52:40;;;;;;;11.50;8.95;;;;;;;;;;6185351;23;20028;-84
2022/04/23 10:55:06;;;;;;;12.63;9.27;;;;;;;;;;6184942;23;20019;-83
2022/04/23 10:57:32;;;;;;;12.63;10.27;;;;;;;;;;6183782;23;20020;-85
2022/04/23 11:00:09;;;;;;;14.88;10.57;;;;;;;;;;6183343;23;20089;-85
2022/04/23 11:02:35;;;;;;;12.68;10.02;;;;;;;;;;6183606;23;20021;-86
2022/04/23 11:13:27;;;;;;;10.32;9.10;;;;;;;;;;6183419;23;20088;-85
2022/04/23 11:16:13;;;;;;;11.02;9.50;;;;;;;;;;6158427;23;20019;-86
2022/04/23 11:18:40;;;;;;;10.80;8.70;;;;;;;;;;6183436;23;20012;-86
2022/04/23 11:21:07;;;;;;;18.13;8.70;;;;;;;;;;6183076;23;20019;-86
2022/04/23 11:23:34;;;;;;;10.88;8.15;;;;;;;;;;6158721;23;20048;-86
2022/04/23 11:26:01;;;;;;;11.23;8.82;;;;;;;;;;6183229;23;20450;-86
2022/04/23 11:28:26;;;;;;;14.95;9.85;;;;;;;;;;6184060;23;20041;-87
2022/04/23 11:30:54;;;;;;;11.90;8.38;;;;;;;;;;6183040;23;20099;-86
2022/04/23 11:33:20;;;;;;;10.55;7.85;;;;;;;;;;6183325;23;20439;-87
2022/04/23 11:35:46;;;;;;;10.40;8.55;;;;;;;;;;6158543;23;20053;-84
2022/04/23 11:38:19;;;;;;;12.88;8.05;;;;;;;;;;6183622;23;20013;-85
2022/04/23 11:40:45;;;;;;;10.82;8.07;;;;;;;;;;6158160;23;20068;-85
2022/04/23 11:43:13;;;;;;;10.85;8.43;;;;;;;;;;6183408;23;20017;-87
2022/04/23 11:45:51;;;;;;;12.43;7.80;;;;;;;;;;6183077;23;20016;-91
2022/04/23 11:48:17;;;;;;;13.82;8.07;;;;;;;;;;6183415;23;20016;-87
2022/04/23 11:50:43;;;;;;;9.40;7.82;;;;;;;;;;6179620;23;20048;-86
2022/04/23 11:53:10;;;;;;;11.35;7.28;;;;;;;;;;6183174;23;20013;-87
2022/04/23 11:55:36;;;;;;;12.68;7.07;;;;;;;;;;6183048;23;20009;-86
2022/04/23 11:58:04;;;;;;;11.93;8.20;;;;;;;;;;6185078;23;20443;-85
2022/04/23 12:00:34;;;;;;;9.10;7.28;;;;;;;;;;6160286;23;20020;-86
2022/04/23 12:03:00;;;;;;;8.80;7.00;;;;;;;;;;6185395;23;20415;-86
2022/04/23 12:05:30;;;;;;;11.20;7.63;;;;;;;;;;6185102;23;20012;-85
2022/04/23 12:07:57;;;;;;;8.98;6.90;;;;;;;;;;6185143;23;20017;-85
2022/04/23 12:10:27;;;;;;;11.02;7.38;;;;;;;;;;6184739;23;20493;-86
2022/04/23 12:12:56;;;;;;;9.63;8.10;;;;;;;;;;6186998;23;20085;-86
2022/04/23 12:15:22;;;;;;;11.82;8.02;;;;;;;;;;6185113;23;20013;-84
2022/04/23 12:17:53;;;;;;;8.82;7.00;;;;;;;;;;6184722;23;20036;-86
2022/04/23 12:20:20;;;;;;;12.23;6.65;;;;;;;;;;6161314;23;20047;-86
2022/04/23 12:22:55;;;;;;;9.80;6.82;;;;;;;;;;6183757;23;20017;-85
2022/04/23 12:25:25;;;;;;;11.15;6.82;;;;;;;;;;6184862;23;20024;-86
2022/04/23 12:42:22;;;;;;;8.90;7.07;;;;;;;;;;6182371;23;20315;-85
2022/04/23 12:44:49;;;;;;;9.00;6.13;;;;;;;;;;6184531;23;20079;-86
2022/04/23 12:47:33;;;;;;;9.45;6.60;;;;;;;;;;6156469;23;20073;-87
2022/04/23 12:50:06;;;;;;;10.05;6.13;;;;;;;;;;6184795;23;20032;-84
2022/04/23 12:52:32;;;;;;;11.25;6.43;;;;;;;;;;6184015;23;20017;-85
2022/04/23 12:55:14;;;;;;;9.80;6.90;;;;;;;;;;6184901;23;20021;-85
2022/04/23 12:57:47;;;;;;;8.02;5.82;;;;;;;;;;6159874;23;20027;-83
2022/04/23 13:00:16;;;;;;;8.48;6.50;;;;;;;;;;6184675;23;20021;-86
2022/04/23 13:02:43;;;;;;;10.90;6.43;;;;;;;;;;6183749;23;20480;-83
2022/04/23 13:05:10;;;;;;;9.27;6.68;;;;;;;;;;6159867;23;20020;-84
2022/04/23 13:10:22;;;;;;;12.70;5.97;;;;;;;;;;6184536;23;20017;-85
2022/04/23 13:12:48;;;;;;;11.50;6.75;;;;;;;;;;6184587;23;20443;-86
2022/04/23 13:15:16;;;;;;;8.85;6.63;;;;;;;;;;6184719;23;20112;-86
2022/04/23 13:17:42;;;;;;;12.07;6.40;;;;;;;;;;6159763;23;20053;-86
2022/04/23 13:20:09;;;;;;;11.25;6.28;;;;;;;;;;6184579;23;20047;-86
2022/04/23 13:22:35;;;;;;;9.32;6.07;;;;;;;;;;6159397;23;20009;-88
2022/04/23 13:25:02;;;;;;;8.15;6.60;;;;;;;;;;6159684;23;20017;-86
2022/04/23 13:27:29;;;;;;;10.05;5.60;;;;;;;;;;6184394;23;20039;-85
2022/04/23 13:29:55;;;;;;;9.75;5.60;;;;;;;;;;6184541;23;20009;-85
2022/04/23 13:32:21;;;;;;;9.05;5.57;;;;;;;;;;6159169;23;20017;-85
2022/04/23 13:34:47;;;;;;;13.32;5.53;;;;;;;;;;6184584;23;20465;-86
2022/04/23 13:37:16;;;;;;;11.15;5.55;;;;;;;;;;6184274;23;20470;-85
2022/04/23 13:39:42;;;;;;;8.43;4.95;;;;;;;;;;6184367;23;20017;-87
2022/04/23 13:42:08;;;;;;;10.77;5.35;;;;;;;;;;6184164;23;20017;-85
2022/04/23 13:44:35;;;;;;;10.18;5.63;;;;;;;;;;6184439;23;20048;-85
2022/04/23 13:47:01;;;;;;;10.43;5.53;;;;;;;;;;6159379;23;20442;-85
2022/04/23 13:49:27;;;;;;;9.73;4.90;;;;;;;;;;6184435;23;20032;-85
2022/04/23 13:51:53;;;;;;;8.73;5.05;;;;;;;;;;6183938;23;20454;-85
2022/04/23 13:54:19;;;;;;;9.52;4.30;;;;;;;;;;6184389;23;20398;-86
2022/04/23 13:56:49;;;;;;;7.80;4.82;;;;;;;;;;6159153;23;20513;-85
2022/04/23 13:59:15;;;;;;;8.25;4.43;;;;;;;;;;6159483;23;20047;-84
2022/04/23 14:10:04;;;;;;;6.63;4.72;;;;;;;;;;6183878;23;20372;-85
2022/04/23 14:10:07;;;;;;;7.43;4.05;;;;;;;;;;6184081;23;20052;-85
2022/04/23 14:12:33;;;;;;;8.25;4.22;;;;;;;;;;6184094;23;20021;-85
2022/04/23 14:14:59;;;;;;;7.43;4.18;;;;;;;;;;6183958;23;20017;-85
2022/04/23 14:17:27;;;;;;;7.28;4.22;;;;;;;;;;6183826;23;20447;-86
2022/04/23 14:19:53;;;;;;;7.88;4.30;;;;;;;;;;6185827;23;20028;-85
2022/04/23 14:22:19;;;;;;;9.40;4.50;;;;;;;;;;6185284;23;20406;-83
2022/04/23 14:24:45;;;;;;;7.63;4.20;;;;;;;;;;6183921;23;20021;-84
2022/04/23 14:27:11;;;;;;;6.18;4.18;;;;;;;;;;6183777;23;20056;-85
2022/04/23 14:29:37;;;;;;;9.57;4.97;;;;;;;;;;6183837;23;20013;-86
2022/04/23 14:32:03;;;;;;;9.27;4.45;;;;;;;;;;6183550;23;20013;-86
2022/04/23 14:34:29;;;;;;;7.95;3.88;;;;;;;;;;6159448;23;20028;-85
2022/04/23 14:36:55;;;;;;;7.10;4.70;;;;;;;;;;6183876;23;20016;-86
2022/04/23 14:39:21;;;;;;;10.80;4.35;;;;;;;;;;6183811;23;20051;-87
2022/04/23 14:41:47;;;;;;;7.70;4.20;;;;;;;;;;6183480;23;20084;-87
2022/04/23 14:44:13;;;;;;;7.88;3.90;;;;;;;;;;6183591;23;20036;-85
2022/04/23 14:46:40;;;;;;;9.30;3.92;;;;;;;;;;6183595;23;20032;-86
2022/04/23 14:49:07;;;;;;;7.22;3.72;;;;;;;;;;6183861;23;20016;-85
2022/04/23 14:54:18;;;;;;;8.82;4.28;;;;;;;;;;6183728;23;20052;-86
2022/04/23 14:56:44;;;;;;;8.23;4.20;;;;;;;;;;6183471;23;20032;-88
2022/04/23 14:59:11;;;;;;;8.98;4.85;;;;;;;;;;6184237;23;20116;-86
2022/04/23 15:01:39;;;;;;;10.15;4.25;;;;;;;;;;6184106;23;20013;-89
2022/04/23 15:04:10;;;;;;;6.45;3.75;;;;;;;;;;6158530;23;20017;-86
2022/04/23 15:06:36;;;;;;;6.82;3.85;;;;;;;;;;6184174;23;20024;-91
2022/04/23 15:09:03;;;;;;;8.98;3.85;;;;;;;;;;6182868;23;20116;-86
2022/04/23 15:11:29;;;;;;;6.00;3.78;;;;;;;;;;6158650;23;20071;-86
2022/04/23 15:13:55;;;;;;;7.30;4.30;;;;;;;;;;6183270;23;20048;-87
2022/04/23 15:16:21;;;;;;;6.10;3.92;;;;;;;;;;6183452;23;20024;-86
2022/04/23 15:18:47;;;;;;;7.63;4.13;;;;;;;;;;6186383;23;20041;-86
2022/04/23 15:21:13;;;;;;;8.55;3.92;;;;;;;;;;6189453;23;20013;-87